Time;durP1;ratioP1;P1;durP2;ratioP2;P2;SDS_P1;SDS_P2;PMS_P1;PMS_P2;Temp;Humidity;BMP_temperature;BMP_pressure;BME280_temperature;BME280_humidity;BME280_pressure;Samples;Min_cycle;Max_cycle;Signal;HPM_P1;HPM_P2
2022/08/14 00:00:37;;;;;;;;;26.33;22.67;;;;;23.54;71.07;99838.00;4979827;28;45313;-74
2022/08/14 00:03:03;;;;;;;;;21.33;20.67;;;;;23.59;71.08;99844.03;4979679;28;45395;-74
2022/08/14 00:05:28;;;;;;;;;23.00;21.67;;;;;23.66;70.96;99851.84;4979257;28;45625;-75
2022/08/14 00:07:54;;;;;;;;;21.33;20.67;;;;;23.31;71.57;99805.94;4979404;28;45484;-74
2022/08/14 00:10:21;;;;;;;;;20.33;19.67;;;;;23.66;72.74;99876.72;4979730;28;45637;-74
2022/08/14 00:12:52;;;;;;;;;20.00;19.00;;;;;23.61;71.66;99868.84;4977207;28;45411;-74
2022/08/14 00:15:37;;;;;;;;;18.67;17.33;;;;;23.65;71.92;99874.09;4961902;28;47939;-74
2022/08/14 00:18:04;;;;;;;;;20.00;20.00;;;;;23.55;71.32;99866.41;4979167;28;45435;-74
2022/08/14 00:20:34;;;;;;;;;21.33;20.00;;;;;23.44;71.79;99847.25;4979213;28;45317;-74
2022/08/14 00:23:00;;;;;;;;;14.33;13.00;;;;;23.52;71.38;99857.66;4979343;28;45281;-74
2022/08/14 00:25:27;;;;;;;;;18.33;18.00;;;;;23.45;70.98;99848.13;4978771;28;45567;-74
2022/08/14 00:27:53;;;;;;;;;15.33;13.67;;;;;23.43;70.88;99867.69;4979188;28;45304;-76
2022/08/14 00:30:19;;;;;;;;;17.00;17.00;;;;;23.31;71.12;99852.13;4961958;28;45410;-75
2022/08/14 00:32:45;;;;;;;;;17.67;17.00;;;;;23.46;72.08;99871.16;4978957;28;45459;-74
2022/08/14 00:35:11;;;;;;;;;17.67;17.00;;;;;23.47;71.39;99871.13;4978706;28;46236;-74
2022/08/14 00:37:42;;;;;;;;;17.00;16.00;;;;;23.27;70.90;99849.63;4978672;28;45321;-74
2022/08/14 00:40:15;;;;;;;;;16.00;14.67;;;;;23.38;71.60;99863.47;4978843;28;45456;-75
2022/08/14 00:42:41;;;;;;;;;16.67;15.67;;;;;23.37;71.51;99867.03;4979022;28;45503;-74
2022/08/14 00:45:10;;;;;;;;;15.67;14.00;;;;;23.35;70.72;99861.75;4978662;28;46628;-74
2022/08/14 00:47:36;;;;;;;;;16.67;15.00;;;;;23.46;70.61;99869.41;4978647;28;45455;-74
2022/08/14 00:50:06;;;;;;;;;16.33;15.67;;;;;23.46;71.00;99882.72;4978603;28;45365;-74
2022/08/14 00:52:32;;;;;;;;;13.00;12.67;;;;;23.44;70.92;99871.25;4978456;28;45491;-74
2022/08/14 00:54:58;;;;;;;;;13.67;12.67;;;;;23.40;71.04;99877.59;4978542;28;46304;-77
2022/08/14 00:57:29;;;;;;;;;12.00;12.00;;;;;23.15;70.96;99851.75;4978714;28;45491;-76
2022/08/14 00:59:56;;;;;;;;;12.00;12.00;;;;;23.31;71.03;99859.25;4978563;28;45456;-74
2022/08/14 01:02:25;;;;;;;;;11.00;10.00;;;;;23.28;71.08;99862.91;4961377;28;45211;-76
2022/08/14 01:04:56;;;;;;;;;11.00;10.67;;;;;23.30;71.37;99871.72;4961052;28;45684;-74
2022/08/14 01:07:23;;;;;;;;;11.00;10.33;;;;;23.16;70.81;99853.50;4978710;28;45424;-76
2022/08/14 01:10:00;;;;;;;;;10.00;9.33;;;;;23.29;70.99;99879.75;4978526;28;45385;-76
2022/08/14 01:12:27;;;;;;;;;10.00;10.00;;;;;23.28;71.10;99875.31;4960960;28;45495;-77
2022/08/14 01:14:54;;;;;;;;;11.33;11.33;;;;;23.13;70.49;99850.94;4978516;28;45999;-76
2022/08/14 01:17:23;;;;;;;;;8.67;8.00;;;;;23.05;70.69;99839.66;4978272;28;45505;-76
2022/08/14 01:22:35;;;;;;;;;11.00;10.33;;;;;22.46;71.70;99739.44;4978636;28;45305;-76
2022/08/14 01:25:00;;;;;;;;;11.00;9.00;;;;;23.25;71.32;99875.44;4960383;28;46948;-77
2022/08/14 01:27:27;;;;;;;;;11.00;11.00;;;;;23.29;70.70;99877.09;4978348;28;45830;-78
2022/08/14 01:29:56;;;;;;;;;11.00;10.33;;;;;23.02;72.17;99829.13;4978613;28;45301;-76
2022/08/14 01:32:22;;;;;;;;;14.33;12.67;;;;;23.27;71.99;99876.25;4978551;28;45497;-77
2022/08/14 01:34:53;;;;;;;;;12.33;12.00;;;;;23.25;72.75;99878.09;4978042;28;46597;-77
2022/08/14 01:37:22;;;;;;;;;10.00;9.67;;;;;22.79;72.11;99796.06;4977862;28;45506;-76
2022/08/14 01:39:48;;;;;;;;;12.00;10.00;;;;;23.26;71.78;99874.50;4978035;28;45466;-76
2022/08/14 01:42:14;;;;;;;;;12.33;10.67;;;;;22.91;71.09;99804.59;4978213;28;45345;-76
2022/08/14 01:44:40;;;;;;;;;10.33;10.33;;;;;22.90;71.17;99802.81;4976571;28;45717;-77
2022/08/14 01:47:12;;;;;;;;;13.00;12.00;;;;;23.27;71.03;99868.28;4977794;28;45381;-76
2022/08/14 01:49:39;;;;;;;;;13.00;12.33;;;;;23.30;71.83;99865.47;4978173;28;45307;-76
2022/08/14 01:52:05;;;;;;;;;12.33;11.00;;;;;23.29;71.44;99871.75;4978121;28;45495;-74
2022/08/14 01:54:31;;;;;;;;;11.67;10.33;;;;;22.78;70.88;99785.47;4977711;28;45439;-77
2022/08/14 01:56:57;;;;;;;;;14.67;12.33;;;;;23.06;71.35;99825.44;4977930;28;45468;-77
2022/08/14 01:59:27;;;;;;;;;12.33;11.00;;;;;23.24;71.72;99861.25;4978168;28;45722;-76
2022/08/14 02:01:55;;;;;;;;;13.00;11.33;;;;;23.12;71.92;99846.53;4978031;28;45326;-77
2022/08/14 02:04:23;;;;;;;;;11.67;10.33;;;;;23.06;71.32;99824.53;4977545;28;46695;-76
2022/08/14 02:06:50;;;;;;;;;12.00;12.00;;;;;23.23;71.46;99862.16;4959943;28;45439;-74
2022/08/14 02:09:17;;;;;;;;;11.00;10.67;;;;;23.05;71.99;99829.00;4977685;28;45424;-73
2022/08/14 02:11:46;;;;;;;;;12.00;11.00;;;;;23.16;71.80;99853.50;4977756;28;45567;-73
2022/08/14 02:14:16;;;;;;;;;15.33;14.00;;;;;23.19;72.52;99865.84;4977451;28;46356;-74
2022/08/14 02:16:51;;;;;;;;;9.67;9.67;;;;;23.17;71.91;99857.91;4977467;28;45316;-74
2022/08/14 02:19:23;;;;;;;;;11.00;11.00;;;;;23.15;71.57;99851.75;4977618;28;45363;-73
2022/08/14 02:21:53;;;;;;;;;12.67;12.67;;;;;23.16;71.47;99852.66;4977494;28;45258;-75
2022/08/14 02:24:21;;;;;;;;;14.67;13.33;;;;;23.16;71.45;99856.16;4977287;28;45472;-73
2022/08/14 02:26:48;;;;;;;;;11.33;11.00;;;;;23.12;72.00;99851.88;4977333;28;45357;-74
2022/08/14 02:29:21;;;;;;;;;12.33;11.67;;;;;23.15;72.11;99851.75;4977480;28;45412;-74
2022/08/14 02:31:50;;;;;;;;;10.33;10.33;;;;;23.22;71.29;99847.97;4977314;28;45666;-74
2022/08/14 02:34:41;;;;;;;;;10.00;10.00;;;;;23.27;71.18;99863.81;4977122;28;46588;-73
2022/08/14 02:37:10;;;;;;;;;10.67;9.67;;;;;23.29;71.52;99866.41;4980409;28;45487;-73
2022/08/14 02:39:42;;;;;;;;;11.00;10.67;;;;;23.26;71.05;99853.19;4979534;28;45270;-73
2022/08/14 02:42:11;;;;;;;;;13.00;12.00;;;;;23.14;71.89;99839.38;4980869;28;45311;-74
2022/08/14 02:44:39;;;;;;;;;11.67;11.33;;;;;23.20;72.06;99862.28;4980522;28;46106;-73
2022/08/14 02:47:07;;;;;;;;;10.33;9.33;;;;;23.00;70.91;99820.28;4962956;28;45329;-74
2022/08/14 02:49:33;;;;;;;;;13.00;11.67;;;;;23.05;70.98;99841.47;4963241;28;45471;-74
2022/08/14 02:52:00;;;;;;;;;12.00;11.00;;;;;23.17;71.13;99854.38;4981046;28;45476;-73
2022/08/14 02:54:26;;;;;;;;;9.33;9.33;;;;;23.15;70.47;99845.56;4980353;28;46698;-73
2022/08/14 02:56:53;;;;;;;;;10.00;9.33;;;;;23.14;70.87;99835.81;4962909;28;45539;-74
2022/08/14 02:59:20;;;;;;;;;11.00;11.00;;;;;23.15;70.01;99830.44;4962874;28;45411;-73
2022/08/14 03:01:49;;;;;;;;;10.33;10.33;;;;;23.15;70.07;99832.25;4963015;28;45396;-73
2022/08/14 03:04:15;;;;;;;;;10.67;10.33;;;;;23.17;69.77;99849.03;4980261;28;46073;-74
2022/08/14 03:06:42;;;;;;;;;12.00;10.33;;;;;23.29;69.78;99858.44;4978893;28;45492;-73
2022/08/14 03:09:10;;;;;;;;;11.33;11.00;;;;;23.22;70.08;99841.78;4979206;28;45567;-74
2022/08/14 03:11:36;;;;;;;;;10.33;10.00;;;;;23.23;69.74;99844.38;4962998;28;45491;-74
2022/08/14 03:14:03;;;;;;;;;11.00;11.00;;;;;23.13;69.64;99821.63;4980334;28;45474;-74
2022/08/14 03:16:34;;;;;;;;;11.00;11.00;;;;;23.13;69.18;99850.94;4979161;28;45284;-74
2022/08/14 03:19:02;;;;;;;;;13.67;12.33;;;;;23.11;69.93;99835.94;4980497;28;45492;-73
2022/08/14 03:21:31;;;;;;;;;13.00;11.67;;;;;23.12;70.32;99841.22;4980852;28;45576;-74
2022/08/14 03:24:12;;;;;;;;;14.67;13.00;;;;;23.18;69.65;99862.31;4962371;28;46853;-74
2022/08/14 03:26:44;;;;;;;;;16.33;13.00;;;;;23.13;70.25;99852.72;4962354;28;45259;-74
2022/08/14 03:29:15;;;;;;;;;15.33;14.33;;;;;22.92;70.57;99822.28;4980131;28;45355;-74
2022/08/14 03:31:41;;;;;;;;;16.33;15.00;;;;;23.10;70.82;99859.03;4980045;28;45567;-73
2022/08/14 03:34:09;;;;;;;;;16.67;16.67;;;;;23.07;70.77;99847.59;4979727;28;46596;-74
2022/08/14 03:36:35;;;;;;;;;16.67;16.67;;;;;22.99;70.30;99838.03;4979813;28;45515;-75
2022/08/14 03:39:04;;;;;;;;;19.00;17.00;;;;;22.88;70.13;99825.97;4962438;28;45521;-73
2022/08/14 03:41:30;;;;;;;;;18.33;16.33;;;;;22.94;69.65;99844.41;4980261;28;45305;-74
2022/08/14 03:43:59;;;;;;;;;19.67;18.67;;;;;22.78;70.85;99833.38;4979488;28;45537;-73
2022/08/14 03:46:26;;;;;;;;;20.33;16.33;;;;;22.85;70.65;99842.94;4978551;28;45418;-73
2022/08/14 03:48:53;;;;;;;;;18.00;16.33;;;;;22.71;70.76;99808.75;4961665;28;45426;-73
2022/08/14 03:51:19;;;;;;;;;20.33;19.33;;;;;22.84;71.08;99825.22;4979968;28;45684;-73
2022/08/14 03:53:46;;;;;;;;;17.00;16.00;;;;;22.83;70.01;99836.78;4979379;28;45674;-73
2022/08/14 03:56:15;;;;;;;;;18.33;17.00;;;;;22.85;71.39;99832.28;4979635;28;45261;-73
2022/08/14 03:58:44;;;;;;;;;18.67;17.33;;;;;22.87;70.58;99830.44;4979668;28;45324;-73
2022/08/14 04:01:18;;;;;;;;;19.67;19.00;;;;;22.60;70.89;99792.25;4979953;28;45221;-73
2022/08/14 04:03:45;;;;;;;;;17.00;15.33;;;;;22.86;69.54;99826.06;4979400;28;46306;-74
2022/08/14 04:06:11;;;;;;;;;18.67;18.00;;;;;22.69;70.05;99802.59;4961835;28;45431;-73
2022/08/14 04:08:38;;;;;;;;;18.00;17.00;;;;;22.56;70.26;99786.16;4979409;28;45513;-75
2022/08/14 04:11:05;;;;;;;;;17.67;16.33;;;;;22.56;70.56;99798.59;4979975;28;45451;-73
2022/08/14 04:13:34;;;;;;;;;16.00;15.33;;;;;22.33;71.51;99792.19;4979376;28;46650;-73
2022/08/14 04:16:04;;;;;;;;;17.33;15.67;;;;;22.48;71.63;99811.25;4979303;28;45533;-73
2022/08/14 04:18:31;;;;;;;;;17.00;15.67;;;;;22.49;71.42;99815.69;4979272;28;45455;-73
2022/08/14 04:20:57;;;;;;;;;19.00;17.33;;;;;22.50;71.47;99818.31;4979359;28;45445;-73
2022/08/14 04:23:23;;;;;;;;;21.67;18.33;;;;;22.46;71.68;99802.44;4978997;28;45428;-73
2022/08/14 04:25:52;;;;;;;;;19.33;16.67;;;;;22.44;72.07;99800.72;4978874;28;45207;-74
2022/08/14 04:28:18;;;;;;;;;19.00;17.67;;;;;22.48;71.84;99805.94;4994103;28;45491;-74
2022/08/14 04:30:44;;;;;;;;;15.67;14.33;;;;;22.50;71.24;99812.09;4978968;28;45308;-73
2022/08/14 04:33:10;;;;;;;;;17.00;16.00;;;;;22.47;72.26;99826.38;4978430;28;45836;-73
2022/08/14 04:35:37;;;;;;;;;15.33;14.00;;;;;22.33;72.33;99794.84;4979055;28;45527;-74
2022/08/14 04:43:39;;;;;;;;;13.00;13.00;;;;;21.93;71.21;99718.88;4978804;28;45282;-74
2022/08/14 04:46:12;;;;;;;;;16.67;16.67;;;;;22.46;71.17;99802.44;4978836;28;45369;-73
2022/08/14 04:48:38;;;;;;;;;16.00;15.33;;;;;22.38;71.52;99790.28;4961443;28;45448;-73
2022/08/14 04:51:06;;;;;;;;;15.67;15.33;;;;;22.37;71.31;99793.84;4979257;28;45445;-73
2022/08/14 04:53:33;;;;;;;;;15.67;14.33;;;;;22.41;71.17;99798.16;4960864;28;46853;-73
2022/08/14 04:55:59;;;;;;;;;18.00;15.00;;;;;22.27;71.17;99781.75;4978685;28;45331;-73
2022/08/14 04:58:31;;;;;;;;;15.33;14.67;;;;;22.31;71.67;99788.72;4978396;28;45448;-73
2022/08/14 05:00:57;;;;;;;;;15.33;15.33;;;;;22.41;71.30;99800.81;4979012;28;45270;-73
2022/08/14 05:03:32;;;;;;;;;15.00;14.00;;;;;22.41;71.31;99792.81;4960803;28;47133;-73
2022/08/14 05:06:02;;;;;;;;;16.33;14.67;;;;;22.43;71.37;99804.28;4978476;28;45459;-73
2022/08/14 05:08:29;;;;;;;;;15.33;14.33;;;;;22.31;70.84;99783.38;4978535;28;45586;-73
2022/08/14 05:10:57;;;;;;;;;15.33;15.00;;;;;22.37;71.00;99779.66;4978699;28;45242;-73
2022/08/14 05:13:24;;;;;;;;;17.67;15.67;;;;;22.37;71.00;99779.66;4960657;28;47290;-73
2022/08/14 05:15:51;;;;;;;;;15.00;13.67;;;;;22.45;71.60;99777.63;4978143;28;45317;-74
2022/08/14 05:18:31;;;;;;;;;16.33;15.00;;;;;22.44;71.65;99782.09;4978222;28;45594;-73
2022/08/14 05:20:59;;;;;;;;;16.67;15.67;;;;;22.44;72.05;99787.41;4961072;28;45325;-74
2022/08/14 05:23:27;;;;;;;;;16.33;15.33;;;;;22.30;72.73;99775.44;4978138;28;45349;-74
2022/08/14 05:26:00;;;;;;;;;17.00;14.67;;;;;22.37;72.46;99787.66;4978032;28;45389;-76
2022/08/14 05:28:28;;;;;;;;;16.33;15.67;;;;;22.32;73.25;99794.88;4978362;28;45253;-77
2022/08/14 05:31:00;;;;;;;;;16.33;15.67;;;;;22.35;72.97;99794.81;4976955;28;45239;-77
2022/08/14 05:33:27;;;;;;;;;17.00;16.67;;;;;22.24;72.83;99776.50;4977888;28;46287;-73
2022/08/14 05:36:01;;;;;;;;;19.00;17.33;;;;;22.39;72.93;99794.66;4977981;28;45325;-73
2022/08/14 05:38:32;;;;;;;;;18.33;17.00;;;;;22.32;72.76;99776.25;4978103;28;45225;-73
2022/08/14 05:40:59;;;;;;;;;14.67;14.67;;;;;22.48;72.37;99798.81;4960437;28;45547;-73
2022/08/14 05:43:25;;;;;;;;;19.33;17.67;;;;;22.41;72.76;99795.47;4977730;28;45295;-73
2022/08/14 05:45:51;;;;;;;;;18.67;17.00;;;;;22.35;72.32;99787.69;4992904;28;45506;-73
2022/08/14 05:48:16;;;;;;;;;20.33;16.00;;;;;22.42;73.03;99793.69;4978048;28;45496;-73
2022/08/14 05:50:42;;;;;;;;;18.00;17.33;;;;;22.30;73.07;99773.66;4978150;28;45627;-75
2022/08/14 05:53:08;;;;;;;;;17.33;16.67;;;;;22.44;73.07;99786.53;4978082;28;46380;-75
2022/08/14 05:55:33;;;;;;;;;18.33;18.00;;;;;22.45;73.47;99796.28;4960082;28;45915;-74
2022/08/14 05:58:02;;;;;;;;;17.67;17.67;;;;;22.36;73.35;99781.47;4960085;28;45447;-74
2022/08/14 06:00:31;;;;;;;;;15.33;14.67;;;;;22.42;72.70;99788.38;4977994;28;45310;-74
2022/08/14 06:02:58;;;;;;;;;18.00;17.00;;;;;22.47;72.93;99791.78;4977031;28;45568;-75
2022/08/14 06:05:24;;;;;;;;;20.67;18.33;;;;;22.38;72.69;99784.94;4977188;28;45508;-74
2022/08/14 06:07:50;;;;;;;;;19.00;18.33;;;;;22.37;73.41;99771.69;4977456;28;45405;-76
2022/08/14 06:10:16;;;;;;;;;22.33;18.33;;;;;22.33;73.65;99784.22;4976595;28;45588;-73
2022/08/14 06:12:42;;;;;;;;;19.33;16.33;;;;;22.41;73.81;99790.16;4977511;28;46475;-74
2022/08/14 06:15:08;;;;;;;;;16.00;15.33;;;;;22.40;73.93;99776.91;4977433;28;45274;-76
2022/08/14 06:17:48;;;;;;;;;25.25;23.25;;;;;22.33;73.85;99762.91;4977589;28;45511;-74
2022/08/14 06:20:15;;;;;;;;;19.00;19.00;;;;;22.51;73.87;99805.84;4977617;28;45343;-74
2022/08/14 06:22:43;;;;;;;;;21.67;20.33;;;;;22.41;73.00;99791.97;4977591;28;46431;-74
2022/08/14 06:25:10;;;;;;;;;16.67;16.00;;;;;22.46;73.64;99797.13;4977758;28;45427;-74
2022/08/14 06:27:42;;;;;;;;;16.67;15.33;;;;;22.46;73.12;99805.97;4977427;28;45238;-73
2022/08/14 06:30:11;;;;;;;;;14.33;14.33;;;;;22.37;73.52;99788.50;4977684;28;45503;-73
2022/08/14 06:32:36;;;;;;;;;16.00;15.33;;;;;22.48;73.22;99789.97;4977190;28;46367;-74
2022/08/14 06:35:06;;;;;;;;;13.67;13.67;;;;;22.53;73.06;99798.69;4977127;28;45163;-77
2022/08/14 06:37:43;;;;;;;;;15.00;15.00;;;;;22.33;72.84;99767.38;4977555;28;45428;-77
2022/08/14 06:40:11;;;;;;;;;17.00;16.67;;;;;22.49;73.10;99808.56;4960031;28;45250;-76
2022/08/14 06:42:38;;;;;;;;;15.67;15.00;;;;;22.48;72.36;99809.47;4977139;28;45544;-77
2022/08/14 06:45:05;;;;;;;;;15.67;15.00;;;;;22.52;72.67;99804.91;4959577;28;45259;-76
2022/08/14 06:47:35;;;;;;;;;16.67;16.00;;;;;22.60;72.83;99819.75;4959417;28;45375;-76
2022/08/14 06:50:03;;;;;;;;;18.67;17.67;;;;;22.54;72.96;99795.09;4977329;28;45458;-77
2022/08/14 06:52:28;;;;;;;;;19.33;17.00;;;;;22.53;72.52;99798.69;4977140;28;45601;-77
2022/08/14 06:54:55;;;;;;;;;18.67;16.33;;;;;22.55;72.14;99795.06;4975537;28;45368;-76
2022/08/14 06:57:21;;;;;;;;;15.67;15.33;;;;;22.67;71.96;99798.25;4977371;28;45408;-77
2022/08/14 06:59:47;;;;;;;;;16.67;15.67;;;;;22.80;71.25;99819.13;4977281;28;45426;-74
2022/08/14 07:07:41;;;;;;;;;14.33;13.67;;;;;22.86;70.11;99804.75;4977258;28;45342;-73
2022/08/14 07:10:08;;;;;;;;;21.33;19.33;;;;;22.94;70.87;99817.78;4977335;28;45250;-76
2022/08/14 07:12:34;;;;;;;;;17.00;15.00;;;;;22.95;70.00;99801.75;4976794;28;46662;-77
2022/08/14 07:15:00;;;;;;;;;20.00;16.67;;;;;23.13;70.28;99831.41;4976710;28;45499;-75
2022/08/14 07:17:26;;;;;;;;;17.67;16.00;;;;;23.05;70.45;99807.69;4977322;28;45281;-74
2022/08/14 07:19:52;;;;;;;;;15.33;13.00;;;;;23.05;68.97;99806.84;4977007;28;45458;-74
2022/08/14 07:22:18;;;;;;;;;17.67;16.33;;;;;23.16;68.52;99834.84;4978954;28;45345;-74
2022/08/14 07:24:43;;;;;;;;;16.00;15.67;;;;;23.14;69.63;99836.72;4980457;28;45479;-77
2022/08/14 07:27:09;;;;;;;;;15.00;15.00;;;;;23.16;69.78;99834.84;4980269;28;45368;-77
2022/08/14 07:29:34;;;;;;;;;17.67;16.67;;;;;23.20;69.33;99847.16;4980037;28;45463;-76
2022/08/14 07:32:00;;;;;;;;;18.67;16.33;;;;;23.24;69.48;99847.94;4979733;28;45643;-77
2022/08/14 07:34:26;;;;;;;;;16.33;15.33;;;;;23.10;69.13;99819.09;4978429;28;45599;-74
2022/08/14 07:36:51;;;;;;;;;16.33;15.67;;;;;23.25;69.41;99846.13;4979870;28;45346;-74
2022/08/14 07:39:17;;;;;;;;;22.33;20.00;;;;;23.34;70.25;99857.34;4980553;28;45309;-74
2022/08/14 07:41:45;;;;;;;;;15.33;14.00;;;;;23.29;69.07;99853.97;4980128;28;46132;-74
2022/08/14 07:44:12;;;;;;;;;15.00;14.67;;;;;23.19;68.38;99821.41;4979838;28;45400;-77
2022/08/14 07:46:39;;;;;;;;;18.33;17.33;;;;;23.25;67.32;99811.50;4980032;28;45654;-77
2022/08/14 07:49:05;;;;;;;;;15.67;13.33;;;;;23.37;66.78;99825.25;4979666;28;45503;-74
2022/08/14 07:51:31;;;;;;;;;16.00;14.00;;;;;23.60;66.50;99850.25;4979475;28;45480;-77
2022/08/14 07:53:57;;;;;;;;;14.67;14.00;;;;;23.55;66.27;99834.41;4979384;28;45427;-76
2022/08/14 07:56:23;;;;;;;;;13.00;13.00;;;;;23.82;66.37;99869.94;4979387;28;45311;-77
2022/08/14 07:58:49;;;;;;;;;16.00;15.33;;;;;23.89;64.62;99859.91;4979531;28;45258;-78
2022/08/14 08:01:17;;;;;;;;;16.67;15.33;;;;;23.75;65.28;99839.03;4979131;28;45507;-75
2022/08/14 08:03:45;;;;;;;;;20.00;18.67;;;;;23.78;64.91;99846.09;4978266;28;45465;-75
2022/08/14 08:06:15;;;;;;;;;18.00;16.67;;;;;23.69;65.13;99825.91;4979583;28;45246;-76
2022/08/14 08:08:42;;;;;;;;;17.33;16.00;;;;;23.88;65.09;99852.84;4994723;28;45301;-76
2022/08/14 08:11:10;;;;;;;;;17.33;14.67;;;;;23.93;65.07;99847.34;4961536;28;45282;-76
2022/08/14 08:13:41;;;;;;;;;17.00;16.67;;;;;23.92;64.71;99843.81;4979007;28;45352;-76
2022/08/14 08:16:07;;;;;;;;;15.33;14.67;;;;;24.13;63.72;99874.19;4978853;28;45321;-77
2022/08/14 08:18:33;;;;;;;;;16.67;14.00;;;;;24.07;62.20;99869.03;4979020;28;45309;-77
2022/08/14 08:20:59;;;;;;;;;16.33;14.67;;;;;23.71;63.08;99823.22;4978796;28;45483;-77
2022/08/14 08:23:28;;;;;;;;;14.00;13.00;;;;;24.01;63.46;99887.94;4978841;28;45487;-74
2022/08/14 08:25:53;;;;;;;;;24.33;21.33;;;;;23.90;63.38;99879.47;4978901;28;45313;-76
2022/08/14 08:28:22;;;;;;;;;13.00;12.33;;;;;23.72;62.10;99852.50;4961521;28;45531;-74
2022/08/14 08:30:51;;;;;;;;;15.00;14.67;;;;;23.82;62.96;99885.06;4978317;28;45492;-77
2022/08/14 08:33:18;;;;;;;;;16.33;16.33;;;;;23.45;62.98;99818.78;4977753;28;45316;-77
2022/08/14 08:35:44;;;;;;;;;13.33;13.00;;;;;23.91;62.94;99899.88;4960843;28;45263;-76
2022/08/14 08:38:19;;;;;;;;;12.00;11.33;;;;;23.89;62.93;99881.25;4961094;28;45215;-78
2022/08/14 08:40:47;;;;;;;;;12.00;11.00;;;;;23.88;62.60;99887.53;4978188;28;45440;-76
2022/08/14 08:43:23;;;;;;;;;18.67;17.33;;;;;23.94;62.51;99886.44;4978232;28;45444;-74
2022/08/14 08:46:02;;;;;;;;;12.33;12.00;;;;;24.10;62.71;99903.63;4978825;28;45436;-79
2022/08/14 08:48:29;;;;;;;;;16.67;15.33;;;;;23.70;61.43;99832.16;4978710;28;45439;-77
2022/08/14 08:51:01;;;;;;;;;15.00;13.00;;;;;24.12;61.94;99892.91;4978261;28;46515;-77
2022/08/14 08:53:34;;;;;;;;;18.00;18.00;;;;;23.57;61.30;99789.91;4978463;28;45388;-76
2022/08/14 08:56:01;;;;;;;;;16.00;15.33;;;;;24.06;61.24;99882.47;4978597;28;45403;-77
2022/08/14 08:58:27;;;;;;;;;14.67;14.00;;;;;24.13;61.43;99895.53;4978401;28;45412;-79
2022/08/14 09:00:55;;;;;;;;;17.67;15.33;;;;;24.27;61.24;99912.81;4978034;28;46487;-78
2022/08/14 09:03:24;;;;;;;;;16.67;16.67;;;;;23.81;61.72;99862.00;4977257;28;45413;-75
2022/08/14 09:05:55;;;;;;;;;14.00;12.33;;;;;23.95;62.03;99874.84;4978572;28;45473;-77
2022/08/14 09:08:29;;;;;;;;;13.33;13.00;;;;;24.00;61.34;99884.41;4978238;28;45400;-77
2022/08/14 09:10:55;;;;;;;;;15.67;14.00;;;;;24.17;61.25;99915.84;4977752;28;46095;-78
2022/08/14 09:13:25;;;;;;;;;17.00;15.33;;;;;24.09;62.15;99920.56;4977676;28;45285;-77
2022/08/14 09:15:54;;;;;;;;;16.33;15.67;;;;;23.81;62.72;99886.00;4978193;28;45397;-78
2022/08/14 09:18:21;;;;;;;;;13.00;12.33;;;;;23.83;62.76;99884.13;4978578;28;45322;-77
2022/08/14 09:20:53;;;;;;;;;14.00;13.00;;;;;23.97;63.06;99908.56;4977640;28;45629;-75
2022/08/14 09:23:19;;;;;;;;;17.00;16.00;;;;;23.91;62.91;99892.72;4992734;28;45314;-75
2022/08/14 09:25:50;;;;;;;;;17.33;17.00;;;;;24.02;63.12;99927.91;4977561;28;45435;-77
2022/08/14 09:28:18;;;;;;;;;16.67;15.67;;;;;23.98;63.35;99926.28;4977653;28;45531;-77
2022/08/14 09:30:48;;;;;;;;;13.33;13.00;;;;;23.93;62.65;99919.38;4977043;28;45444;-78
2022/08/14 09:33:29;;;;;;;;;17.33;16.67;;;;;23.89;62.71;99925.72;4976852;28;45404;-76
2022/08/14 09:35:55;;;;;;;;;15.33;13.67;;;;;23.80;63.19;99930.47;4976556;28;45415;-75
2022/08/14 09:38:38;;;;;;;;;15.00;13.67;;;;;23.73;63.97;99926.22;4977227;28;45482;-80
2022/08/14 09:41:22;;;;;;;;;14.67;14.67;;;;;23.49;63.13;99898.59;4956007;28;45927;-77
2022/08/14 09:44:02;;;;;;;;;15.00;14.00;;;;;23.54;63.10;99907.31;4963645;28;45607;-78
2022/08/14 09:46:27;;;;;;;;;14.33;12.33;;;;;23.62;62.99;99931.06;4958462;28;45553;-78
2022/08/14 09:49:00;;;;;;;;;12.00;11.00;;;;;23.68;62.85;99920.19;4968794;28;45470;-77
2022/08/14 09:51:28;;;;;;;;;16.67;14.33;;;;;23.57;62.68;99893.00;4975160;28;45691;-77
2022/08/14 09:54:11;;;;;;;;;16.00;13.00;;;;;23.78;62.85;99912.78;4969843;28;45404;-77
2022/08/14 09:56:48;;;;;;;;;17.00;14.67;;;;;23.98;62.72;99939.63;4964807;28;45528;-79
2022/08/14 09:59:16;;;;;;;;;16.33;13.33;;;;;23.75;62.17;99892.38;4974703;28;45875;-74
2022/08/14 10:01:43;;;;;;;;;12.67;11.00;;;;;24.10;62.32;99940.13;4973200;28;46699;-77
2022/08/14 10:04:24;;;;;;;;;15.00;13.00;;;;;24.20;61.51;99936.19;4951084;28;45560;-77
2022/08/14 10:06:50;;;;;;;;;13.00;11.33;;;;;24.42;61.09;99938.97;4970699;28;45322;-74
2022/08/14 10:09:17;;;;;;;;;12.00;11.33;;;;;24.67;60.18;99914.91;4973219;28;45547;-75
2022/08/14 10:11:56;;;;;;;;;13.00;13.00;;;;;25.15;58.73;99915.72;4968542;28;46269;-75
2022/08/14 10:14:24;;;;;;;;;12.00;12.00;;;;;25.77;57.06;99892.66;4974809;28;45567;-75
2022/08/14 10:16:55;;;;;;;;;15.00;12.33;;;;;26.42;54.32;99909.41;4967898;28;45374;-75
2022/08/14 10:19:24;;;;;;;;;13.00;12.33;;;;;26.66;54.29;99926.22;4972518;28;45467;-76
2022/08/14 10:22:07;;;;;;;;;12.33;12.33;;;;;27.02;54.02;99922.75;4951270;28;47288;-73
2022/08/14 10:24:45;;;;;;;;;12.00;12.00;;;;;26.84;52.67;99852.13;4966800;28;45377;-73
2022/08/14 10:27:22;;;;;;;;;13.33;12.00;;;;;27.42;52.81;99926.19;4967463;28;45360;-73
2022/08/14 10:29:58;;;;;;;;;14.00;12.00;;;;;27.30;52.60;99908.03;4974046;28;45528;-73
2022/08/14 10:32:25;;;;;;;;;12.67;12.00;;;;;27.33;50.92;99921.25;4973025;28;45541;-73
2022/08/14 10:35:08;;;;;;;;;12.00;11.00;;;;;27.05;51.40;99921.72;4968660;28;45538;-73
2022/08/14 10:37:39;;;;;;;;;12.33;12.33;;;;;27.27;51.89;99894.75;4968166;28;45385;-73
2022/08/14 10:40:06;;;;;;;;;12.00;11.00;;;;;27.81;51.46;99898.25;4975632;28;45419;-73
2022/08/14 10:42:37;;;;;;;;;15.00;13.33;;;;;28.35;49.54;99930.34;4971666;28;46135;-74
2022/08/14 10:45:19;;;;;;;;;13.33;13.33;;;;;28.21;49.81;99924.84;4973060;28;45538;-73
2022/08/14 10:47:44;;;;;;;;;11.00;10.00;;;;;27.88;49.46;99926.56;4969547;28;45528;-74
2022/08/14 10:50:10;;;;;;;;;9.00;8.67;;;;;27.41;50.20;99904.78;4967150;28;45379;-75
2022/08/14 10:52:37;;;;;;;;;9.00;8.00;;;;;26.97;50.98;99900.63;4973317;28;45447;-76
2022/08/14 10:55:15;;;;;;;;;8.00;7.00;;;;;27.15;50.93;99921.19;4967874;28;46958;-74
2022/08/14 10:57:48;;;;;;;;;7.67;7.67;;;;;27.05;51.22;99925.25;4968791;28;45585;-74
2022/08/14 11:00:17;;;;;;;;;7.00;7.00;;;;;26.99;51.51;99923.72;4977251;28;45743;-74
2022/08/14 11:02:42;;;;;;;;;10.00;9.00;;;;;26.99;51.17;99901.44;4960205;28;46994;-74
2022/08/14 11:05:13;;;;;;;;;9.00;9.00;;;;;26.97;51.46;99903.31;4968243;28;45529;-74
2022/08/14 11:07:54;;;;;;;;;7.00;7.00;;;;;27.38;50.49;99909.38;4985217;28;45494;-75
2022/08/14 11:10:23;;;;;;;;;6.00;6.00;;;;;27.69;48.86;99896.22;4975818;28;45310;-74
2022/08/14 11:12:51;;;;;;;;;14.67;10.67;;;;;28.55;48.55;99908.69;4959985;28;45754;-74
2022/08/14 11:15:18;;;;;;;;;8.33;6.33;;;;;29.38;46.99;99900.47;4974059;28;46049;-74
2022/08/14 11:17:46;;;;;;;;;10.00;9.00;;;;;29.90;45.32;99907.28;4971884;28;45464;-74
2022/08/14 11:20:13;;;;;;;;;6.33;5.67;;;;;30.07;44.82;99887.44;4974545;28;45438;-73
2022/08/14 11:22:42;;;;;;;;;6.67;6.67;;;;;30.32;44.34;99897.56;4972929;28;45488;-74
2022/08/14 11:25:15;;;;;;;;;7.67;7.00;;;;;30.42;43.68;99882.56;4958457;28;45448;-73
2022/08/14 11:27:43;;;;;;;;;6.67;6.00;;;;;30.59;43.75;99884.19;4985766;28;45437;-74
2022/08/14 11:30:12;;;;;;;;;8.00;7.00;;;;;30.87;42.74;99882.41;4973872;28;45835;-74
2022/08/14 11:32:41;;;;;;;;;10.33;9.00;;;;;31.10;42.88;99879.09;4976178;28;46159;-74
2022/08/14 11:35:11;;;;;;;;;8.00;8.00;;;;;31.13;42.39;99894.19;4974868;28;45444;-74
2022/08/14 11:37:38;;;;;;;;;8.00;8.00;;;;;30.65;43.52;99889.19;4968452;28;45417;-73
2022/08/14 11:40:13;;;;;;;;;10.33;10.33;;;;;30.60;43.55;99875.16;4973366;28;45510;-73